createdAt,value
2022-10-05T00:01:24.076Z,5.15
2022-10-05T00:03:50.913Z,5.20
2022-10-05T00:06:17.301Z,4.93
2022-10-05T00:08:43.679Z,5.97
2022-10-05T00:11:12.780Z,5.28
2022-10-05T00:13:39.696Z,6.15
2022-10-05T00:16:06.058Z,5.40
2022-10-05T00:18:32.434Z,5.38
2022-10-05T00:20:58.717Z,5.22
2022-10-05T00:23:26.368Z,6.05
2022-10-05T00:25:52.634Z,5.18
2022-10-05T00:28:26.420Z,5.65
2022-10-05T00:30:55.151Z,5.93
2022-10-05T00:33:21.442Z,6.55
2022-10-05T00:35:47.702Z,6.22
2022-10-05T00:38:14.108Z,6.75
2022-10-05T00:40:50.711Z,6.18
2022-10-05T00:43:16.983Z,6.97
2022-10-05T00:45:45.783Z,7.13
2022-10-05T00:48:12.103Z,5.32
2022-10-05T00:50:41.527Z,6.72
2022-10-05T00:53:26.462Z,5.60
2022-10-05T00:56:13.585Z,6.40
2022-10-05T00:59:06.238Z,5.28
2022-10-05T01:01:45.593Z,5.15
2022-10-05T01:04:14.967Z,6.75
2022-10-05T01:06:47.305Z,7.05
2022-10-05T01:09:29.757Z,6.95
2022-10-05T01:12:14.862Z,5.93
2022-10-05T01:14:41.102Z,6.35
2022-10-05T01:17:13.059Z,6.32
2022-10-05T01:19:39.283Z,6.80
2022-10-05T01:22:29.969Z,6.57
2022-10-05T01:24:56.210Z,7.00
2022-10-05T01:27:40.982Z,7.50
2022-10-05T01:30:18.538Z,6.20
2022-10-05T01:32:45.095Z,5.93
2022-10-05T01:35:34.755Z,6.10
2022-10-05T01:38:00.991Z,5.63
2022-10-05T01:40:33.082Z,6.05
2022-10-05T01:43:02.403Z,7.22
2022-10-05T01:45:28.710Z,6.30
2022-10-05T01:48:04.091Z,5.70
2022-10-05T01:53:16.770Z,5.93
2022-10-05T01:55:52.391Z,6.55
2022-10-05T01:58:28.915Z,8.98
2022-10-05T02:00:55.203Z,5.88
2022-10-05T02:03:24.737Z,6.32
2022-10-05T02:06:17.572Z,6.10
2022-10-05T02:08:46.435Z,6.70
2022-10-05T02:11:14.721Z,6.57
2022-10-05T02:13:49.893Z,6.43
2022-10-05T02:16:17.702Z,6.88
2022-10-05T02:18:49.247Z,6.53
2022-10-05T02:21:15.768Z,6.35
2022-10-05T02:23:42.948Z,6.45
2022-10-05T02:26:10.865Z,7.30
2022-10-05T02:28:49.115Z,6.25
2022-10-05T02:31:24.080Z,7.13
2022-10-05T02:33:50.443Z,6.45
2022-10-05T02:36:18.693Z,6.60
2022-10-05T02:39:05.022Z,7.93
2022-10-05T02:41:50.148Z,6.72
2022-10-05T02:44:28.624Z,7.75
2022-10-05T02:47:01.830Z,7.10
2022-10-05T02:49:43.035Z,6.35
2022-10-05T02:52:24.150Z,6.65
2022-10-05T02:55:14.158Z,7.00
2022-10-05T02:57:54.657Z,6.20
2022-10-05T03:00:22.508Z,6.32
2022-10-05T03:02:53.520Z,6.57
2022-10-05T03:05:19.873Z,6.57
2022-10-05T03:08:05.030Z,7.72
2022-10-05T03:10:31.276Z,7.28
2022-10-05T03:13:17.080Z,6.03
2022-10-05T03:18:19.056Z,6.47
2022-10-05T03:20:52.710Z,6.75
2022-10-05T03:23:45.051Z,6.35
2022-10-05T03:26:26.283Z,7.15
2022-10-05T03:29:03.293Z,7.55
2022-10-05T03:31:39.574Z,6.30
2022-10-05T03:34:05.855Z,6.53
2022-10-05T03:36:32.114Z,6.22
2022-10-05T03:39:12.632Z,6.57
2022-10-05T03:41:38.962Z,5.82
2022-10-05T03:44:23.809Z,7.05
2022-10-05T03:46:52.910Z,6.75
2022-10-05T03:49:24.958Z,7.10
2022-10-05T03:51:55.739Z,7.68
2022-10-05T03:54:21.987Z,7.60
2022-10-05T03:57:01.708Z,7.47
2022-10-05T03:59:32.417Z,6.85
2022-10-05T04:02:01.655Z,6.47
2022-10-05T04:04:27.912Z,5.70
2022-10-05T04:06:55.490Z,7.32
2022-10-05T04:09:42.876Z,6.53
2022-10-05T04:12:24.240Z,6.28
2022-10-05T04:14:53.552Z,6.72
2022-10-05T04:17:31.410Z,6.97
2022-10-05T04:20:07.206Z,7.47
2022-10-05T04:22:38.907Z,6.95
2022-10-05T04:25:19.951Z,7.15
2022-10-05T04:27:52.425Z,6.85
2022-10-05T04:30:19.585Z,7.55
2022-10-05T04:32:50.031Z,6.53
2022-10-05T04:35:25.610Z,7.78
2022-10-05T04:38:04.295Z,8.00
2022-10-05T04:40:33.649Z,7.45
2022-10-05T04:42:59.953Z,7.10
2022-10-05T04:45:44.834Z,7.40
2022-10-05T04:48:19.006Z,7.55
2022-10-05T04:50:45.305Z,7.97
2022-10-05T04:53:37.932Z,8.10
2022-10-05T04:56:04.165Z,7.15
2022-10-05T04:58:49.419Z,7.00
2022-10-05T05:01:22.104Z,6.63
2022-10-05T05:04:00.315Z,7.45
2022-10-05T05:06:38.123Z,6.72
2022-10-05T05:09:10.299Z,7.55
2022-10-05T05:11:39.384Z,6.10
2022-10-05T05:14:24.284Z,6.85
2022-10-05T05:17:13.449Z,6.97
2022-10-05T05:19:56.555Z,7.13
2022-10-05T05:22:22.789Z,7.22
2022-10-05T05:24:57.674Z,5.78
2022-10-05T05:27:36.679Z,7.47
2022-10-05T05:30:02.958Z,6.25
2022-10-05T05:32:40.284Z,6.15
2022-10-05T05:35:21.548Z,6.85
2022-10-05T05:37:51.015Z,6.72
2022-10-05T05:40:23.367Z,5.53
2022-10-05T05:42:49.582Z,6.63
2022-10-05T05:45:28.118Z,4.55
2022-10-05T05:47:54.780Z,5.85
2022-10-05T05:50:33.521Z,8.13
2022-10-05T05:53:06.420Z,7.20
2022-10-05T05:55:38.303Z,5.78
2022-10-05T05:58:13.930Z,6.78
2022-10-05T06:00:46.531Z,6.53
2022-10-05T06:03:18.251Z,6.38
2022-10-05T06:05:47.168Z,7.78
2022-10-05T06:08:19.575Z,5.38
2022-10-05T06:10:54.025Z,6.18
2022-10-05T06:13:24.071Z,6.63
2022-10-05T06:15:56.262Z,5.88
2022-10-05T06:18:23.057Z,6.13
2022-10-05T06:20:53.183Z,7.03
2022-10-05T06:23:25.411Z,5.30
2022-10-05T06:25:57.695Z,6.28
2022-10-05T06:28:25.747Z,5.25
2022-10-05T06:30:52.094Z,6.28
2022-10-05T06:33:27.234Z,5.40
2022-10-05T06:36:01.585Z,7.32
2022-10-05T06:38:38.258Z,6.47
2022-10-05T06:41:12.547Z,5.50
2022-10-05T06:43:38.786Z,5.95
2022-10-05T06:46:10.992Z,5.65
2022-10-05T06:48:57.607Z,5.68
2022-10-05T06:51:35.146Z,5.82
2022-10-05T06:54:05.515Z,5.72
2022-10-05T06:56:36.281Z,6.40
2022-10-05T06:59:09.286Z,5.78
2022-10-05T07:01:51.704Z,5.55
2022-10-05T07:04:37.140Z,5.95
2022-10-05T07:07:18.717Z,5.22
2022-10-05T07:09:52.451Z,4.57
2022-10-05T07:12:27.101Z,5.53
2022-10-05T07:15:12.231Z,5.70
2022-10-05T07:17:45.490Z,6.35
2022-10-05T07:20:17.024Z,5.75
2022-10-05T07:22:43.293Z,4.55
2022-10-05T07:25:12.641Z,6.13
2022-10-05T07:27:43.630Z,4.75
2022-10-05T07:30:12.570Z,4.63
2022-10-05T07:32:48.075Z,4.97
2022-10-05T07:35:35.976Z,4.15
2022-10-05T07:38:07.320Z,4.30
2022-10-05T07:40:40.101Z,4.53
2022-10-05T07:43:15.650Z,7.00
2022-10-05T07:45:46.775Z,4.60
2022-10-05T07:48:16.339Z,5.15
2022-10-05T07:50:56.544Z,5.50
2022-10-05T07:53:28.187Z,4.60
2022-10-05T07:55:55.733Z,5.00
2022-10-05T07:58:25.322Z,3.63
2022-10-05T08:01:04.237Z,4.47
2022-10-05T08:03:38.771Z,3.55
2022-10-05T08:06:06.667Z,3.80
2022-10-05T08:08:35.811Z,3.67
2022-10-05T08:11:06.858Z,3.80
2022-10-05T08:13:33.147Z,4.75
2022-10-05T08:16:01.472Z,4.22
2022-10-05T08:18:48.479Z,4.72
2022-10-05T08:21:16.282Z,4.63
2022-10-05T08:23:46.841Z,5.00
2022-10-05T08:26:19.324Z,5.88
2022-10-05T08:28:50.834Z,5.22
2022-10-05T08:31:20.924Z,5.40
2022-10-05T08:34:20.128Z,6.10
2022-10-05T08:36:49.230Z,4.85
2022-10-05T08:39:20.634Z,5.03
2022-10-05T08:42:05.392Z,7.40
2022-10-05T08:45:04.001Z,6.20
2022-10-05T08:47:33.730Z,6.00
2022-10-05T08:50:12.864Z,5.10
2022-10-05T08:53:00.613Z,4.45
2022-10-05T08:55:45.909Z,5.80
2022-10-05T08:58:32.054Z,5.57
2022-10-05T09:01:04.454Z,5.25
2022-10-05T09:03:36.732Z,5.28
2022-10-05T09:06:15.259Z,5.50
2022-10-05T09:08:47.896Z,5.30
2022-10-05T09:11:32.281Z,5.10
2022-10-05T09:14:21.646Z,5.10
2022-10-05T09:16:47.887Z,5.47
2022-10-05T09:19:22.967Z,6.38
2022-10-05T09:22:13.552Z,5.40
2022-10-05T09:24:48.804Z,4.68
2022-10-05T09:29:41.227Z,5.63
2022-10-05T09:32:19.545Z,5.13
2022-10-05T09:34:57.772Z,4.53
2022-10-05T09:37:33.248Z,5.47
2022-10-05T09:40:18.378Z,5.45
2022-10-05T09:42:53.769Z,5.35
2022-10-05T09:48:13.540Z,5.10
2022-10-05T09:50:58.554Z,5.90
2022-10-05T09:53:44.195Z,4.40
2022-10-05T09:59:07.300Z,4.38
2022-10-05T10:01:52.853Z,5.35
2022-10-05T10:04:30.374Z,4.95
2022-10-05T10:07:26.120Z,4.82
2022-10-05T10:10:11.188Z,4.88
2022-10-05T10:12:46.577Z,4.53
2022-10-05T10:15:31.476Z,6.25
2022-10-05T10:18:07.589Z,4.28
2022-10-05T10:20:39.841Z,5.25
2022-10-05T10:23:09.750Z,5.40
2022-10-05T10:25:48.186Z,4.68
2022-10-05T10:28:25.583Z,4.50
2022-10-05T10:31:10.389Z,3.92
2022-10-05T10:33:49.678Z,5.13
2022-10-05T10:36:23.930Z,4.78
2022-10-05T10:38:58.677Z,5.10
2022-10-05T10:41:27.869Z,3.70
2022-10-05T10:44:12.790Z,6.57
2022-10-05T10:46:53.867Z,4.70
2022-10-05T10:49:42.584Z,3.63
2022-10-05T10:52:20.159Z,4.18
2022-10-05T10:55:01.766Z,3.78
2022-10-05T10:57:30.763Z,4.22
2022-10-05T10:59:57.047Z,3.17
2022-10-05T11:02:38.348Z,4.35
2022-10-05T11:05:24.917Z,3.83
2022-10-05T11:07:58.672Z,4.55
2022-10-05T11:10:30.746Z,4.47
2022-10-05T11:12:58.016Z,4.88
2022-10-05T11:15:43.255Z,3.30
2022-10-05T11:18:09.535Z,4.15
2022-10-05T11:20:38.826Z,4.88
2022-10-05T11:23:05.056Z,4.32
2022-10-05T11:25:44.339Z,4.40
2022-10-05T11:28:29.260Z,4.00
2022-10-05T11:31:08.914Z,4.72
2022-10-05T11:33:42.541Z,4.15
2022-10-05T11:36:27.629Z,7.28
2022-10-05T11:39:17.667Z,4.70
2022-10-05T11:41:53.716Z,4.30
2022-10-05T11:44:38.677Z,4.65
2022-10-05T11:47:08.624Z,4.05
2022-10-05T11:49:48.460Z,3.92
2022-10-05T11:52:14.690Z,3.78
2022-10-05T11:57:40.967Z,3.28
2022-10-05T12:00:10.028Z,3.28
2022-10-05T12:02:49.542Z,3.00
2022-10-05T12:05:21.091Z,3.22
2022-10-05T12:07:56.279Z,2.67
2022-10-05T12:12:52.374Z,3.33
2022-10-05T12:15:25.283Z,3.00
2022-10-05T12:17:56.163Z,2.63
2022-10-05T12:20:26.287Z,3.13
2022-10-05T12:22:58.258Z,3.70
2022-10-05T12:25:48.248Z,4.40
2022-10-05T12:28:21.036Z,2.95
2022-10-05T12:30:50.154Z,3.30
2022-10-05T12:33:26.845Z,2.92
2022-10-05T12:35:57.255Z,3.17
2022-10-05T12:38:24.824Z,3.22
2022-10-05T12:40:51.626Z,4.35
2022-10-05T12:43:36.600Z,3.28
2022-10-05T12:46:07.616Z,3.22
2022-10-05T12:48:40.187Z,3.28
2022-10-05T12:51:06.399Z,3.00
2022-10-05T12:53:41.383Z,3.05
2022-10-05T12:56:07.615Z,3.08
2022-10-05T12:58:38.968Z,2.72
2022-10-05T13:01:20.946Z,3.45
2022-10-05T13:04:05.946Z,3.22
2022-10-05T13:06:50.799Z,3.60
2022-10-05T13:09:32.690Z,3.88
2022-10-05T13:12:03.805Z,2.78
2022-10-05T13:14:50.832Z,3.45
2022-10-05T13:17:22.601Z,3.13
2022-10-05T13:19:56.722Z,3.00
2022-10-05T13:22:30.556Z,2.60
2022-10-05T13:25:00.495Z,2.67
2022-10-05T13:27:28.975Z,3.05
2022-10-05T13:30:14.001Z,3.10
2022-10-05T13:32:40.236Z,2.63
2022-10-05T13:35:21.669Z,3.40
2022-10-05T13:38:02.037Z,2.78
2022-10-05T13:40:35.883Z,3.25
2022-10-05T13:43:05.946Z,3.33
2022-10-05T13:45:55.744Z,3.00
2022-10-05T13:48:41.318Z,3.42
2022-10-05T13:51:11.972Z,2.95
2022-10-05T13:53:46.713Z,3.50
2022-10-05T13:56:21.755Z,3.00
2022-10-05T13:58:54.146Z,3.65
2022-10-05T14:01:24.143Z,2.72
2022-10-05T14:04:24.518Z,3.60
2022-10-05T14:06:54.075Z,3.17
2022-10-05T14:09:20.303Z,3.17
2022-10-05T14:11:51.146Z,2.85
2022-10-05T14:14:24.841Z,3.25
2022-10-05T14:16:52.777Z,2.97
2022-10-05T14:19:24.210Z,3.20
2022-10-05T14:21:58.555Z,2.75
2022-10-05T14:24:45.480Z,2.92
2022-10-05T14:27:28.395Z,2.60
2022-10-05T14:30:00.414Z,5.20
2022-10-05T14:32:44.238Z,3.13
2022-10-05T14:35:10.473Z,3.20
2022-10-05T14:37:46.170Z,3.42
2022-10-05T14:40:31.423Z,3.22
2022-10-05T14:42:59.520Z,2.72
2022-10-05T14:45:29.691Z,3.05
2022-10-05T14:48:06.075Z,3.15
2022-10-05T14:50:32.410Z,3.90
2022-10-05T14:53:21.146Z,2.72
2022-10-05T14:55:55.435Z,3.47
2022-10-05T14:58:24.684Z,3.00
2022-10-05T15:01:11.128Z,2.85
2022-10-05T15:04:06.796Z,2.30
2022-10-05T15:06:36.518Z,2.72
2022-10-05T15:09:16.924Z,2.72
2022-10-05T15:11:50.661Z,3.97
2022-10-05T15:14:19.852Z,2.85
2022-10-05T15:16:49.887Z,6.32
2022-10-05T15:19:39.687Z,2.95
2022-10-05T15:22:21.262Z,3.28
2022-10-05T15:24:57.730Z,2.35
2022-10-05T15:27:30.119Z,2.30
2022-10-05T15:30:09.791Z,3.22
2022-10-05T15:32:44.796Z,2.28
2022-10-05T15:35:28.602Z,2.60
2022-10-05T15:37:57.401Z,4.15
2022-10-05T15:40:23.768Z,2.85
2022-10-05T15:42:53.224Z,2.47
2022-10-05T15:45:32.179Z,2.08
2022-10-05T15:48:16.053Z,3.10
2022-10-05T15:51:00.628Z,3.47
2022-10-05T15:53:39.679Z,4.43
2022-10-05T15:56:29.259Z,4.50
2022-10-05T15:59:00.383Z,4.65
2022-10-05T16:01:32.828Z,3.85
2022-10-05T16:04:02.148Z,3.30
2022-10-05T16:07:02.283Z,3.50
2022-10-05T16:09:34.701Z,3.40
2022-10-05T16:12:17.806Z,2.47
2022-10-05T16:14:46.887Z,3.67
2022-10-05T16:17:33.707Z,4.38
2022-10-05T16:20:14.506Z,3.17
2022-10-05T16:22:47.270Z,2.78
2022-10-05T16:25:17.655Z,3.17
2022-10-05T16:27:55.937Z,3.30
2022-10-05T16:30:23.131Z,2.83
2022-10-05T16:33:05.608Z,2.97
2022-10-05T16:35:39.692Z,2.90
2022-10-05T16:38:11.820Z,2.55
2022-10-05T16:40:44.297Z,3.40
2022-10-05T16:43:30.137Z,3.25
2022-10-05T16:45:56.429Z,2.70
2022-10-05T16:48:28.789Z,3.67
2022-10-05T16:51:10.299Z,3.53
2022-10-05T16:53:42.395Z,3.20
2022-10-05T16:56:11.426Z,3.00
2022-10-05T16:59:04.192Z,3.47
2022-10-05T17:01:49.793Z,3.45
2022-10-05T17:06:45.859Z,3.33
2022-10-05T17:09:30.961Z,2.78
2022-10-05T17:12:06.326Z,3.30
2022-10-05T17:14:51.182Z,3.40
2022-10-05T17:17:38.049Z,3.58
2022-10-05T17:20:29.326Z,2.58
2022-10-05T17:23:03.979Z,3.22
2022-10-05T17:25:44.659Z,2.70
2022-10-05T17:28:22.998Z,3.25
2022-10-05T17:30:53.813Z,3.88
2022-10-05T17:33:22.234Z,3.20
2022-10-05T17:36:04.530Z,4.45
2022-10-05T17:38:30.812Z,2.67
2022-10-05T17:41:00.116Z,3.72
2022-10-05T17:43:27.603Z,3.10
2022-10-05T17:46:01.351Z,4.22
2022-10-05T17:48:36.706Z,3.10
2022-10-05T17:51:26.204Z,3.50
2022-10-05T17:54:11.280Z,3.50
2022-10-05T17:56:46.415Z,3.65
2022-10-05T18:01:40.041Z,3.70
2022-10-05T18:04:12.625Z,3.53
2022-10-05T18:06:58.990Z,3.38
2022-10-05T18:09:26.907Z,4.38
2022-10-05T18:12:08.219Z,3.67
2022-10-05T18:15:00.700Z,4.15
2022-10-05T18:17:46.238Z,3.72
2022-10-05T18:22:43.961Z,3.40
2022-10-05T18:25:20.086Z,3.47
2022-10-05T18:27:55.357Z,4.03
2022-10-05T18:30:22.971Z,5.30
2022-10-05T18:33:14.248Z,4.03
2022-10-05T18:35:41.338Z,4.60
2022-10-05T18:38:07.567Z,5.15
2022-10-05T18:40:34.624Z,4.53
2022-10-05T18:43:09.810Z,4.40
2022-10-05T18:48:02.302Z,3.88
2022-10-05T18:50:46.465Z,5.15
2022-10-05T18:53:31.430Z,4.82
2022-10-05T18:56:02.207Z,3.90
2022-10-05T18:58:56.009Z,4.78
2022-10-05T19:01:27.949Z,4.03
2022-10-05T19:04:13.159Z,4.63
2022-10-05T19:06:45.557Z,4.82
2022-10-05T19:09:32.455Z,4.10
2022-10-05T19:12:13.350Z,4.85
2022-10-05T19:14:49.207Z,4.47
2022-10-05T19:17:21.925Z,4.88
2022-10-05T19:19:50.963Z,7.15
2022-10-05T19:22:23.158Z,6.55
2022-10-05T19:24:56.944Z,5.13
2022-10-05T19:27:34.384Z,5.25
2022-10-05T19:30:15.191Z,4.53
2022-10-05T19:32:44.244Z,4.68
2022-10-05T19:35:10.502Z,4.72
2022-10-05T19:37:45.657Z,4.75
2022-10-05T19:42:47.721Z,3.72
2022-10-05T19:45:27.280Z,4.80
2022-10-05T19:47:53.509Z,3.85
2022-10-05T19:50:22.942Z,4.28
2022-10-05T19:53:12.277Z,4.65
2022-10-05T19:55:41.493Z,5.60
2022-10-05T19:58:17.186Z,5.05
2022-10-05T20:00:45.740Z,4.40
2022-10-05T20:03:15.728Z,4.97
2022-10-05T20:05:42.113Z,5.93
2022-10-05T20:08:14.734Z,3.97
2022-10-05T20:10:41.195Z,4.68
2022-10-05T20:13:18.690Z,4.57
2022-10-05T20:16:23.750Z,5.10
2022-10-05T20:19:08.806Z,4.22
2022-10-05T20:21:44.840Z,4.68
2022-10-05T20:24:11.098Z,4.90
2022-10-05T20:27:02.626Z,4.30
2022-10-05T20:29:29.732Z,4.95
2022-10-05T20:31:56.018Z,5.15
2022-10-05T20:34:22.800Z,4.63
2022-10-05T20:36:50.053Z,4.60
2022-10-05T20:39:17.180Z,4.72
2022-10-05T20:41:44.118Z,3.97
2022-10-05T20:44:11.161Z,6.35
2022-10-05T20:46:37.620Z,5.07
2022-10-05T20:49:04.468Z,4.20
2022-10-05T20:51:30.731Z,5.38
2022-10-05T20:53:57.150Z,4.97
2022-10-05T20:56:23.466Z,4.40
2022-10-05T20:58:50.277Z,5.28
2022-10-05T21:01:19.596Z,4.40
2022-10-05T21:03:46.492Z,4.13
2022-10-05T21:06:12.767Z,4.70
2022-10-05T21:08:39.144Z,4.30
2022-10-05T21:11:08.866Z,5.05
2022-10-05T21:13:35.866Z,5.18
2022-10-05T21:16:02.432Z,4.03
2022-10-05T21:18:29.117Z,3.50
2022-10-05T21:20:59.832Z,4.80
2022-10-05T21:23:29.370Z,3.50
2022-10-05T21:25:55.615Z,3.90
2022-10-05T21:28:22.453Z,3.72
2022-10-05T21:30:48.747Z,5.00
2022-10-05T21:33:15.084Z,4.28
2022-10-05T21:35:41.346Z,4.22
2022-10-05T21:38:07.647Z,4.25
2022-10-05T21:40:33.942Z,3.45
2022-10-05T21:43:00.410Z,4.60
2022-10-05T21:45:28.511Z,3.53
2022-10-05T21:47:55.775Z,4.03
2022-10-05T21:50:22.160Z,3.22
2022-10-05T21:52:50.047Z,4.18
2022-10-05T21:55:16.786Z,2.88
2022-10-05T21:57:43.413Z,3.13
2022-10-05T22:00:10.447Z,4.32
2022-10-05T22:02:37.024Z,2.65
2022-10-05T22:05:03.410Z,3.15
2022-10-05T22:07:29.703Z,2.42
2022-10-05T22:09:55.954Z,3.30
2022-10-05T22:12:23.502Z,3.10
2022-10-05T22:14:49.882Z,2.85
2022-10-05T22:17:27.267Z,1.98
2022-10-05T22:19:54.353Z,2.38
2022-10-05T22:22:20.912Z,2.70
2022-10-05T22:24:47.211Z,2.45
2022-10-05T22:27:14.027Z,1.92
2022-10-05T22:29:40.974Z,2.40
2022-10-05T22:32:07.333Z,2.33
2022-10-05T22:34:33.649Z,2.45
2022-10-05T22:37:01.042Z,2.65
2022-10-05T22:39:27.313Z,3.65
2022-10-05T22:41:53.584Z,2.75
2022-10-05T22:44:19.924Z,2.90
2022-10-05T22:46:46.220Z,3.08
2022-10-05T22:49:12.542Z,2.80
2022-10-05T22:51:38.800Z,2.60
2022-10-05T22:54:05.190Z,2.45
2022-10-05T22:56:31.511Z,3.05
2022-10-05T22:58:57.923Z,2.78
2022-10-05T23:01:24.231Z,3.45
2022-10-05T23:03:50.566Z,2.95
2022-10-05T23:06:18.069Z,2.40
2022-10-05T23:08:44.849Z,2.63
2022-10-05T23:11:23.572Z,3.65
2022-10-05T23:13:52.058Z,3.35
2022-10-05T23:16:19.220Z,3.22
2022-10-05T23:18:47.468Z,3.28
2022-10-05T23:21:13.728Z,2.90
2022-10-05T23:23:41.111Z,3.20
2022-10-05T23:26:08.647Z,4.15
2022-10-05T23:28:35.064Z,3.55
2022-10-05T23:31:02.715Z,3.20
2022-10-05T23:33:29.384Z,2.80
2022-10-05T23:36:02.522Z,3.45
2022-10-05T23:38:29.962Z,4.22
2022-10-05T23:40:58.645Z,4.05
2022-10-05T23:43:25.366Z,4.22
2022-10-05T23:45:51.802Z,3.60
2022-10-05T23:48:18.091Z,3.95
2022-10-05T23:50:47.731Z,4.82
2022-10-05T23:53:14.584Z,3.72
2022-10-05T23:55:40.890Z,3.38
2022-10-05T23:58:07.456Z,3.78
